Time;durP1;ratioP1;P1;durP2;ratioP2;P2;SDS_P1;SDS_P2;PMS_P1;PMS_P2;Temp;Humidity;BMP_temperature;BMP_pressure;BME280_temperature;BME280_humidity;BME280_pressure;Samples;Min_cycle;Max_cycle;Signal;HPM_P1;HPM_P2
2020/12/05 00:02:13;;;;;;;11.88;7.32;;;3.10;92.00;;;;;;5017675;28;20037;-80
2020/12/05 00:04:39;;;;;;;10.48;7.00;;;3.20;92.00;;;;;;5018041;28;20018;-80
2020/12/05 00:07:04;;;;;;;9.85;7.38;;;3.20;91.90;;;;;;5017323;28;20027;-80
2020/12/05 00:09:30;;;;;;;9.57;6.80;;;3.20;92.00;;;;;;5017684;28;20048;-80
2020/12/05 00:11:56;;;;;;;9.15;7.47;;;3.30;92.00;;;;;;5017796;28;20113;-80
2020/12/05 00:14:21;;;;;;;11.57;7.25;;;3.30;92.00;;;;;;5017538;28;20565;-80
2020/12/05 00:16:50;;;;;;;12.30;7.72;;;3.30;92.10;;;;;;5001539;28;20470;-80
2020/12/05 00:19:17;;;;;;;11.15;7.30;;;3.30;92.00;;;;;;5016941;28;20493;-80
2020/12/05 00:21:42;;;;;;;12.60;7.55;;;3.30;92.00;;;;;;5017523;28;20042;-80
2020/12/05 00:24:08;;;;;;;11.85;6.90;;;3.30;91.90;;;;;;5035487;28;20376;-80
2020/12/05 00:26:34;;;;;;;12.02;7.78;;;3.30;91.90;;;;;;5016941;28;20029;-80
2020/12/05 00:28:59;;;;;;;9.88;7.45;;;3.30;91.90;;;;;;5017154;28;20021;-80
2020/12/05 00:31:25;;;;;;;11.00;8.30;;;3.20;91.90;;;;;;5017411;28;20025;-80
2020/12/05 00:33:51;;;;;;;13.32;9.38;;;3.20;91.90;;;;;;5016525;28;20048;-80
2020/12/05 00:36:17;;;;;;;12.10;8.85;;;3.20;91.90;;;;;;5016983;28;20025;-79
2020/12/05 00:38:43;;;;;;;13.98;8.07;;;3.20;91.90;;;;;;4985033;28;20538;-80
2020/12/05 00:41:10;;;;;;;11.38;8.13;;;3.20;91.90;;;;;;5016415;28;20128;-79
2020/12/05 00:43:35;;;;;;;11.48;7.00;;;3.20;91.90;;;;;;5017019;28;20024;-81
2020/12/05 00:46:04;;;;;;;10.48;7.68;;;3.20;92.00;;;;;;5017199;28;20029;-79
2020/12/05 00:48:30;;;;;;;10.40;7.70;;;3.20;92.00;;;;;;5016562;28;20075;-82
2020/12/05 00:50:57;;;;;;;11.48;7.60;;;3.20;92.00;;;;;;5017329;28;20032;-78
2020/12/05 00:53:22;;;;;;;11.13;6.47;;;3.10;92.00;;;;;;5035031;28;20033;-78
2020/12/05 00:55:48;;;;;;;9.85;6.05;;;3.20;92.00;;;;;;5033962;28;20032;-75
2020/12/05 00:58:13;;;;;;;9.50;6.07;;;3.10;92.00;;;;;;5034499;28;20026;-78
2020/12/05 01:00:40;;;;;;;10.80;6.57;;;3.20;92.10;;;;;;5034770;28;20453;-79
2020/12/05 01:03:05;;;;;;;8.75;4.97;;;3.20;92.10;;;;;;5015701;28;20382;-77
2020/12/05 01:05:32;;;;;;;7.65;6.18;;;3.10;92.00;;;;;;5016566;28;20017;-77
2020/12/05 01:07:59;;;;;;;9.77;6.10;;;3.10;92.00;;;;;;5034281;28;20026;-78
2020/12/05 01:10:25;;;;;;;9.63;5.70;;;3.10;92.00;;;;;;5016276;28;20053;-77
2020/12/05 01:12:50;;;;;;;13.93;6.88;;;3.00;92.00;;;;;;5034241;28;20049;-78
2020/12/05 01:15:16;;;;;;;8.32;6.43;;;3.00;92.00;;;;;;5016517;28;20030;-77
2020/12/05 01:17:41;;;;;;;7.05;5.80;;;2.90;92.00;;;;;;5015976;28;20024;-77
2020/12/05 01:20:07;;;;;;;8.82;5.85;;;2.90;92.00;;;;;;5034204;28;20064;-78
2020/12/05 01:22:33;;;;;;;9.85;6.97;;;2.90;92.10;;;;;;5033554;28;20494;-77
2020/12/05 01:24:59;;;;;;;8.68;6.00;;;2.80;92.10;;;;;;5016064;28;20075;-77
2020/12/05 01:27:25;;;;;;;10.27;6.47;;;2.80;92.20;;;;;;5034251;28;20029;-77
2020/12/05 01:29:50;;;;;;;7.93;6.03;;;2.80;92.20;;;;;;5033299;28;20108;-77
2020/12/05 01:32:16;;;;;;;13.90;6.38;;;2.80;92.20;;;;;;5016100;28;20112;-77
2020/12/05 01:34:41;;;;;;;8.48;5.55;;;2.70;92.20;;;;;;5049340;28;20109;-77
2020/12/05 01:37:07;;;;;;;11.82;7.07;;;2.70;92.20;;;;;;5015184;28;20061;-77
2020/12/05 01:39:33;;;;;;;9.15;6.07;;;2.70;92.20;;;;;;5016333;28;20021;-77
2020/12/05 01:41:58;;;;;;;11.93;6.50;;;2.60;92.30;;;;;;5010826;28;20124;-76
2020/12/05 01:44:24;;;;;;;9.77;6.28;;;2.60;92.30;;;;;;5035043;28;20025;-76
2020/12/05 01:46:52;;;;;;;9.38;6.20;;;2.60;92.30;;;;;;5029496;28;20483;-77
2020/12/05 01:49:20;;;;;;;10.13;6.03;;;2.60;92.40;;;;;;5033738;28;20021;-76
2020/12/05 01:51:46;;;;;;;12.40;6.20;;;2.60;92.40;;;;;;5014991;28;20029;-76
2020/12/05 01:54:12;;;;;;;8.35;5.63;;;2.60;92.50;;;;;;5033136;28;20026;-77
2020/12/05 01:56:39;;;;;;;9.63;6.25;;;2.60;92.50;;;;;;5033663;28;20076;-77
2020/12/05 01:59:04;;;;;;;9.57;6.80;;;2.60;92.60;;;;;;5021846;28;20024;-77
2020/12/05 02:01:32;;;;;;;9.45;6.20;;;2.60;92.60;;;;;;5035257;28;20025;-77
2020/12/05 02:04:00;;;;;;;11.00;7.63;;;2.70;92.60;;;;;;5034925;28;20118;-76
2020/12/05 02:06:36;;;;;;;10.20;6.47;;;2.70;92.60;;;;;;5034813;28;20032;-76
2020/12/05 02:09:14;;;;;;;10.77;6.60;;;2.80;92.70;;;;;;5035092;28;20119;-77
2020/12/05 02:11:45;;;;;;;11.50;7.20;;;2.80;92.60;;;;;;5040850;28;20017;-77
2020/12/05 02:14:15;;;;;;;11.95;6.82;;;2.90;92.70;;;;;;5023824;28;20384;-77
2020/12/05 02:16:40;;;;;;;9.38;7.05;;;2.90;92.60;;;;;;5026041;28;20037;-78
2020/12/05 02:19:11;;;;;;;11.77;6.53;;;3.00;92.70;;;;;;5008236;28;20025;-77
2020/12/05 02:21:39;;;;;;;8.95;6.03;;;3.00;92.60;;;;;;5032226;28;20064;-77
2020/12/05 02:24:05;;;;;;;9.75;7.07;;;3.10;92.60;;;;;;5032643;28;20112;-77
2020/12/05 02:26:31;;;;;;;10.25;6.47;;;3.10;92.60;;;;;;5014727;28;20120;-78
2020/12/05 02:28:57;;;;;;;9.70;6.05;;;3.10;92.70;;;;;;5033127;28;20057;-76
2020/12/05 02:31:25;;;;;;;11.35;6.97;;;3.20;92.70;;;;;;5033154;28;20380;-78
2020/12/05 02:33:51;;;;;;;9.52;5.88;;;3.20;92.70;;;;;;5032743;28;20037;-76
2020/12/05 02:36:16;;;;;;;11.20;6.20;;;3.30;92.70;;;;;;5015364;28;20080;-77
2020/12/05 02:39:05;;;;;;;10.15;5.97;;;3.30;92.70;;;;;;5015663;28;20018;-76
2020/12/05 02:41:36;;;;;;;11.18;5.95;;;3.30;92.70;;;;;;5015108;28;20076;-77
2020/12/05 02:44:02;;;;;;;10.25;6.10;;;3.40;92.70;;;;;;5015307;28;20079;-77
2020/12/05 02:46:28;;;;;;;11.85;6.00;;;3.40;92.70;;;;;;5015526;28;20030;-77
2020/12/05 02:48:54;;;;;;;10.00;5.90;;;3.50;92.70;;;;;;5032090;28;20022;-77
2020/12/05 02:51:19;;;;;;;8.43;5.57;;;3.50;92.70;;;;;;5015478;28;20056;-77
2020/12/05 02:53:45;;;;;;;9.05;6.10;;;3.50;92.70;;;;;;5034697;28;20502;-77
2020/12/05 02:56:17;;;;;;;8.93;5.95;;;3.60;92.70;;;;;;5036127;28;20033;-76
2020/12/05 02:58:46;;;;;;;10.85;5.90;;;3.60;92.90;;;;;;5018939;28;20029;-76
2020/12/05 03:01:12;;;;;;;9.05;5.90;;;3.60;92.60;;;;;;5018379;28;20039;-76
2020/12/05 03:03:39;;;;;;;9.63;5.75;;;3.70;92.70;;;;;;5018969;28;20427;-76
2020/12/05 03:06:07;;;;;;;12.75;5.82;;;3.70;92.60;;;;;;5036573;28;20029;-76
2020/12/05 03:08:33;;;;;;;8.90;6.10;;;3.70;92.60;;;;;;5018494;28;20053;-76
2020/12/05 03:10:58;;;;;;;9.13;6.00;;;3.70;92.60;;;;;;5036532;28;20026;-76
2020/12/05 03:13:24;;;;;;;7.32;5.53;;;3.70;92.60;;;;;;5036520;28;20041;-76
2020/12/05 03:15:50;;;;;;;9.52;5.40;;;3.70;92.60;;;;;;5018183;28;20025;-76
2020/12/05 03:18:16;;;;;;;7.20;5.03;;;3.70;92.60;;;;;;5018920;28;20477;-76
2020/12/05 03:20:41;;;;;;;8.75;5.70;;;3.70;92.60;;;;;;5018618;28;20025;-76
2020/12/05 03:23:07;;;;;;;8.27;6.07;;;3.70;92.60;;;;;;5035058;28;20041;-76
2020/12/05 03:25:32;;;;;;;6.85;5.28;;;3.70;92.50;;;;;;5018647;28;20037;-76
2020/12/05 03:27:58;;;;;;;7.57;5.15;;;3.70;92.50;;;;;;5036205;28;20072;-76
2020/12/05 03:30:23;;;;;;;7.20;5.63;;;3.70;92.50;;;;;;5017948;28;20032;-77
2020/12/05 03:32:49;;;;;;;6.88;5.90;;;3.70;92.50;;;;;;5018103;28;20029;-76
2020/12/05 03:35:15;;;;;;;7.03;5.18;;;3.70;92.50;;;;;;5018130;28;20028;-76
2020/12/05 03:37:40;;;;;;;7.70;5.57;;;3.70;92.50;;;;;;5018206;28;20026;-77
2020/12/05 03:40:06;;;;;;;9.18;6.07;;;3.60;92.50;;;;;;5018244;28;20028;-76
2020/12/05 03:42:32;;;;;;;8.88;5.30;;;3.60;92.50;;;;;;5018127;28;20490;-75
2020/12/05 03:44:58;;;;;;;10.02;5.63;;;3.60;92.50;;;;;;5017305;28;20064;-75
2020/12/05 03:47:24;;;;;;;6.97;5.32;;;3.60;92.50;;;;;;5018050;28;20052;-76
2020/12/05 03:49:49;;;;;;;9.18;6.28;;;3.50;92.50;;;;;;5035851;28;20385;-76
2020/12/05 03:52:18;;;;;;;8.60;6.07;;;3.50;92.50;;;;;;5017280;28;20024;-76
2020/12/05 03:54:43;;;;;;;12.23;6.20;;;3.50;92.50;;;;;;5035934;28;20143;-75
2020/12/05 03:57:09;;;;;;;9.68;6.28;;;3.40;92.50;;;;;;5034894;28;20116;-76
2020/12/05 03:59:34;;;;;;;11.07;5.82;;;3.30;92.50;;;;;;5017785;28;20105;-76
2020/12/05 04:02:00;;;;;;;10.63;5.93;;;3.30;92.50;;;;;;5035094;28;20034;-76
2020/12/05 04:04:26;;;;;;;7.65;5.55;;;3.20;92.50;;;;;;5017179;28;20372;-76
2020/12/05 04:06:51;;;;;;;9.50;5.50;;;3.20;92.60;;;;;;5017894;28;20390;-76
2020/12/05 04:09:17;;;;;;;8.30;5.78;;;3.10;92.60;;;;;;5017922;28;20029;-76
2020/12/05 04:11:43;;;;;;;8.32;6.13;;;3.10;92.60;;;;;;5034717;28;20026;-76
2020/12/05 04:14:10;;;;;;;7.22;5.97;;;3.00;92.60;;;;;;5017315;28;20080;-75
2020/12/05 04:16:36;;;;;;;9.00;5.63;;;3.00;92.60;;;;;;5017672;28;20026;-76
2020/12/05 04:19:02;;;;;;;7.47;5.75;;;2.90;92.70;;;;;;5034185;28;20493;-75
2020/12/05 04:21:27;;;;;;;10.27;6.03;;;2.90;92.70;;;;;;5035162;28;20044;-75
2020/12/05 04:23:55;;;;;;;9.82;5.63;;;2.80;92.70;;;;;;5017062;28;20041;-76
2020/12/05 04:26:22;;;;;;;9.48;6.10;;;2.80;92.80;;;;;;5016860;28;20079;-75
2020/12/05 04:28:48;;;;;;;9.60;5.40;;;2.80;93.10;;;;;;5017590;28;20025;-75
2020/12/05 04:31:14;;;;;;;8.63;5.63;;;2.80;92.90;;;;;;5017123;28;20021;-76
2020/12/05 04:33:42;;;;;;;9.82;6.15;;;2.80;92.90;;;;;;5016665;28;20021;-76
2020/12/05 04:36:08;;;;;;;10.63;6.07;;;2.70;92.90;;;;;;5017081;28;20026;-75
2020/12/05 04:38:33;;;;;;;9.43;6.13;;;2.80;92.90;;;;;;5017147;28;20033;-75
2020/12/05 04:41:00;;;;;;;11.48;5.88;;;2.80;92.90;;;;;;5016331;28;20021;-76
2020/12/05 04:43:26;;;;;;;8.23;5.55;;;2.80;92.90;;;;;;5034840;28;20033;-76
2020/12/05 04:45:53;;;;;;;6.78;5.05;;;2.80;93.00;;;;;;5017026;28;20053;-76
2020/12/05 04:48:19;;;;;;;6.13;4.45;;;2.80;93.00;;;;;;5016722;28;20032;-75
2020/12/05 04:50:46;;;;;;;7.63;5.43;;;2.70;93.00;;;;;;5016960;28;20068;-76
2020/12/05 04:53:19;;;;;;;7.55;5.65;;;2.70;93.00;;;;;;5034305;28;20095;-75
2020/12/05 04:55:46;;;;;;;9.43;5.10;;;2.60;93.00;;;;;;5016397;28;20029;-75
2020/12/05 04:58:20;;;;;;;6.60;5.13;;;2.70;93.00;;;;;;5016712;28;20032;-75
2020/12/05 05:00:50;;;;;;;9.88;5.25;;;2.60;92.90;;;;;;5033999;28;20025;-75
2020/12/05 05:03:20;;;;;;;7.63;5.75;;;2.60;92.90;;;;;;5016597;28;20052;-76
2020/12/05 05:05:46;;;;;;;8.35;5.25;;;2.50;92.90;;;;;;5017020;28;20429;-76
2020/12/05 05:08:12;;;;;;;10.43;5.75;;;2.50;93.00;;;;;;5015847;28;20033;-76
2020/12/05 05:10:38;;;;;;;7.85;5.25;;;2.40;93.00;;;;;;5016876;28;20023;-76
2020/12/05 05:13:21;;;;;;;8.52;5.25;;;2.40;93.00;;;;;;5016325;28;20528;-76
2020/12/05 05:15:46;;;;;;;;;;;2.30;92.90;;;;;;5033419;28;20124;-76
2020/12/05 05:18:13;;;;;;;10.73;5.72;;;2.30;93.00;;;;;;5016442;28;20042;-75
2020/12/05 05:20:41;;;;;;;7.82;5.50;;;2.30;92.90;;;;;;5034482;28;20025;-75
2020/12/05 05:23:09;;;;;;;9.65;6.00;;;2.30;92.90;;;;;;5015208;28;20073;-75
2020/12/05 05:25:57;;;;;;;9.27;6.35;;;2.30;93.00;;;;;;5016241;28;20021;-75
2020/12/05 05:28:24;;;;;;;8.63;6.97;;;2.30;93.30;;;;;;5016877;28;20075;-76
2020/12/05 05:30:56;;;;;;;10.77;6.40;;;2.30;93.10;;;;;;5015668;28;20026;-75
2020/12/05 05:33:23;;;;;;;13.95;5.97;;;2.30;93.10;;;;;;5034126;28;20029;-76
2020/12/05 05:35:48;;;;;;;12.52;6.47;;;2.30;93.20;;;;;;5033287;28;20029;-76
2020/12/05 05:38:22;;;;;;;7.88;6.85;;;2.30;93.20;;;;;;5033575;28;20474;-77
2020/12/05 05:40:48;;;;;;;9.85;6.78;;;2.30;93.20;;;;;;5015906;28;20032;-76
2020/12/05 05:43:20;;;;;;;8.85;6.35;;;2.30;93.20;;;;;;5015004;28;20029;-76
2020/12/05 05:45:47;;;;;;;9.02;5.95;;;2.40;93.30;;;;;;5016411;28;20410;-76
2020/12/05 05:48:13;;;;;;;8.35;6.53;;;2.40;93.30;;;;;;5015719;28;20468;-76
2020/12/05 05:50:39;;;;;;;9.18;6.10;;;2.40;93.30;;;;;;5015369;28;20035;-77
2020/12/05 05:53:07;;;;;;;10.05;6.22;;;2.50;93.30;;;;;;5015625;28;20108;-76
2020/12/05 05:55:39;;;;;;;12.55;7.15;;;2.40;93.30;;;;;;5015950;28;20048;-76
2020/12/05 05:58:05;;;;;;;10.07;7.13;;;2.50;93.30;;;;;;5014884;28;20083;-76
2020/12/05 06:00:36;;;;;;;9.73;6.22;;;2.50;93.30;;;;;;5033694;28;20029;-76
2020/12/05 06:03:21;;;;;;;10.43;7.45;;;2.50;93.30;;;;;;5015683;28;20076;-75
2020/12/05 06:05:50;;;;;;;8.55;6.45;;;2.40;93.30;;;;;;5015343;28;20014;-83
2020/12/05 06:08:18;;;;;;;11.73;7.28;;;2.50;93.30;;;;;;5033453;28;20033;-75
2020/12/05 06:10:47;;;;;;;9.98;7.22;;;2.40;93.30;;;;;;5032785;28;20021;-75
2020/12/05 06:13:17;;;;;;;12.15;7.30;;;2.40;93.30;;;;;;5015449;28;20021;-75
2020/12/05 06:15:44;;;;;;;10.98;7.20;;;2.40;93.20;;;;;;5033401;28;20063;-76
2020/12/05 06:18:11;;;;;;;10.30;7.43;;;2.40;93.20;;;;;;5014804;28;20057;-75
2020/12/05 06:20:38;;;;;;;10.10;7.75;;;2.40;93.20;;;;;;5033218;28;20025;-74
2020/12/05 06:23:10;;;;;;;12.50;7.82;;;2.40;93.20;;;;;;5032704;28;20120;-74
2020/12/05 06:25:37;;;;;;;10.77;7.40;;;2.40;93.20;;;;;;5032541;28;20022;-75
2020/12/05 06:28:06;;;;;;;10.13;7.53;;;2.40;93.10;;;;;;5032879;28;20026;-74
2020/12/05 06:30:31;;;;;;;11.00;7.47;;;2.30;93.10;;;;;;5015350;28;20426;-74
2020/12/05 06:32:57;;;;;;;11.10;7.53;;;2.30;93.10;;;;;;5032232;28;20028;-75
2020/12/05 06:35:23;;;;;;;11.18;8.43;;;2.30;93.10;;;;;;5031251;28;20457;-75
2020/12/05 06:37:53;;;;;;;14.05;8.30;;;2.20;93.10;;;;;;5010281;28;20033;-75
2020/12/05 06:40:19;;;;;;;16.27;7.85;;;2.20;93.10;;;;;;5014009;28;20108;-75
2020/12/05 06:42:46;;;;;;;17.15;8.55;;;2.10;93.10;;;;;;5034913;28;20043;-74
2020/12/05 06:45:27;;;;;;;12.45;7.97;;;2.10;93.20;;;;;;5045068;28;20028;-74
2020/12/05 06:48:16;;;;;;;14.80;8.60;;;2.10;93.20;;;;;;5032156;28;20030;-74
2020/12/05 06:50:43;;;;;;;15.43;8.35;;;2.00;93.30;;;;;;5032749;28;20069;-73
2020/12/05 06:53:35;;;;;;;11.85;8.45;;;2.00;93.30;;;;;;5014531;28;20029;-74
2020/12/05 06:56:16;;;;;;;9.60;7.40;;;2.00;93.40;;;;;;5028708;28;20487;-74
2020/12/05 06:58:41;;;;;;;11.68;9.27;;;2.00;93.40;;;;;;5046271;28;20481;-74
2020/12/05 07:01:07;;;;;;;16.80;9.40;;;2.00;93.40;;;;;;5041655;28;20047;-75
2020/12/05 07:03:33;;;;;;;18.52;8.95;;;2.00;93.50;;;;;;5021549;28;20389;-76
2020/12/05 07:05:59;;;;;;;10.48;8.63;;;2.00;93.50;;;;;;5036982;28;20040;-76
2020/12/05 07:08:33;;;;;;;11.90;9.27;;;2.00;93.50;;;;;;5041476;28;20025;-75
2020/12/05 07:11:04;;;;;;;10.82;8.95;;;2.10;93.50;;;;;;5025080;28;20034;-75
2020/12/05 07:13:38;;;;;;;12.30;9.07;;;2.10;93.50;;;;;;5019489;28;20025;-75
2020/12/05 07:16:13;;;;;;;12.80;8.80;;;2.10;93.50;;;;;;5028476;28;20037;-74
2020/12/05 07:18:41;;;;;;;11.80;9.05;;;2.20;93.60;;;;;;5034782;28;20025;-75
2020/12/05 07:21:07;;;;;;;13.32;9.68;;;2.20;93.60;;;;;;5030439;28;20053;-76
2020/12/05 07:23:34;;;;;;;16.52;9.60;;;2.30;93.90;;;;;;5026726;28;20033;-80
2020/12/05 07:26:00;;;;;;;13.10;9.73;;;2.30;93.60;;;;;;5031624;28;20466;-77
2020/12/05 07:28:26;;;;;;;13.73;9.85;;;2.40;93.70;;;;;;5032037;28;20363;-76
2020/12/05 07:30:52;;;;;;;18.42;13.55;;;2.40;93.70;;;;;;5014607;28;20022;-75
2020/12/05 07:33:19;;;;;;;13.98;9.85;;;2.50;93.70;;;;;;5015008;28;20067;-76
2020/12/05 07:35:45;;;;;;;15.10;10.45;;;2.50;93.60;;;;;;5014399;28;20521;-76
2020/12/05 07:38:12;;;;;;;15.43;10.70;;;2.60;93.60;;;;;;5031729;28;20033;-77
2020/12/05 07:40:37;;;;;;;13.55;9.95;;;2.70;93.60;;;;;;4998311;28;20439;-77
2020/12/05 07:43:03;;;;;;;15.40;11.15;;;2.70;93.60;;;;;;5015171;28;20100;-76
2020/12/05 07:45:32;;;;;;;17.80;11.45;;;2.80;93.60;;;;;;5016326;28;20054;-75
2020/12/05 07:47:58;;;;;;;13.57;10.05;;;2.80;93.50;;;;;;5015703;28;20037;-77
2020/12/05 07:50:32;;;;;;;14.15;10.15;;;2.90;93.50;;;;;;5015454;28;20100;-75
2020/12/05 07:52:57;;;;;;;15.80;10.65;;;2.90;93.50;;;;;;5016114;28;20109;-74
2020/12/05 07:55:29;;;;;;;15.70;9.45;;;3.00;93.50;;;;;;4998180;28;20105;-73
2020/12/05 07:57:54;;;;;;;15.75;10.57;;;3.00;93.50;;;;;;5026008;28;20036;-75
2020/12/05 08:00:20;;;;;;;13.05;9.82;;;3.10;93.40;;;;;;5035755;28;20018;-74
2020/12/05 08:03:22;;;;;;;13.20;10.05;;;3.20;93.70;;;;;;5018285;28;20025;-76
2020/12/05 08:05:57;;;;;;;13.80;9.02;;;3.30;93.30;;;;;;5004480;28;20037;-76
2020/12/05 08:08:27;;;;;;;12.98;9.10;;;3.40;93.50;;;;;;5035725;28;20095;-76
2020/12/05 08:10:59;;;;;;;14.40;9.90;;;3.50;93.20;;;;;;5034319;28;20056;-77
2020/12/05 08:13:27;;;;;;;16.88;9.30;;;3.50;93.00;;;;;;5035410;28;20041;-74
2020/12/05 08:16:06;;;;;;;14.80;9.38;;;3.60;93.00;;;;;;5002295;28;20062;-75
2020/12/05 08:18:35;;;;;;;12.93;9.75;;;3.70;92.90;;;;;;5015129;28;20482;-75
2020/12/05 08:21:03;;;;;;;14.93;10.32;;;3.80;92.90;;;;;;5008136;28;20022;-75
2020/12/05 08:23:37;;;;;;;13.55;10.50;;;3.80;92.80;;;;;;5023749;28;20075;-75
2020/12/05 08:26:05;;;;;;;10.98;9.02;;;3.90;92.90;;;;;;5035566;28;20075;-76
2020/12/05 08:28:37;;;;;;;10.77;9.43;;;3.90;92.80;;;;;;5035181;28;20034;-76
2020/12/05 08:31:08;;;;;;;9.80;8.50;;;4.00;92.80;;;;;;5030334;28;20108;-75
2020/12/05 08:33:49;;;;;;;16.58;8.50;;;4.10;92.80;;;;;;5034669;28;20420;-75
2020/12/05 08:36:20;;;;;;;8.35;6.18;;;4.10;92.80;;;;;;5047387;28;20105;-75
2020/12/05 08:38:46;;;;;;;11.43;7.77;;;4.30;92.80;;;;;;5034304;28;20029;-76
2020/12/05 08:41:12;;;;;;;11.05;8.57;;;4.30;92.80;;;;;;5016384;28;20382;-75
2020/12/05 08:43:38;;;;;;;9.90;7.10;;;4.40;92.80;;;;;;5020373;28;20029;-75
2020/12/05 08:46:33;;;;;;;10.70;7.97;;;4.50;92.80;;;;;;5038205;28;20029;-75
2020/12/05 08:48:58;;;;;;;9.82;7.60;;;4.60;92.80;;;;;;5016873;28;20052;-74
2020/12/05 08:51:29;;;;;;;10.25;7.10;;;4.60;92.70;;;;;;5029813;28;20033;-76
2020/12/05 08:54:05;;;;;;;7.05;6.00;;;4.70;92.70;;;;;;5050191;28;20022;-74
2020/12/05 08:56:31;;;;;;;8.70;6.78;;;4.70;92.70;;;;;;5017124;28;20064;-75
2020/12/05 08:58:56;;;;;;;8.65;7.18;;;4.70;92.60;;;;;;5034297;28;20053;-75
2020/12/05 09:01:33;;;;;;;9.23;6.78;;;4.70;92.60;;;;;;5034069;28;20037;-75
2020/12/05 09:03:59;;;;;;;9.07;7.15;;;4.70;92.60;;;;;;5016394;28;20124;-74
2020/12/05 09:06:24;;;;;;;9.07;6.88;;;4.60;92.60;;;;;;5022644;28;20088;-75
2020/12/05 09:08:50;;;;;;;10.18;7.43;;;4.60;92.60;;;;;;5035584;28;20025;-75
2020/12/05 09:11:23;;;;;;;8.68;7.30;;;4.50;92.70;;;;;;5036012;28;20028;-75
2020/12/05 09:13:49;;;;;;;10.48;7.22;;;4.50;92.80;;;;;;5035287;28;20052;-75
2020/12/05 09:16:15;;;;;;;7.68;6.82;;;4.60;92.90;;;;;;5050088;28;20036;-74
2020/12/05 09:18:47;;;;;;;14.48;7.05;;;4.60;92.90;;;;;;5021363;28;20382;-74
2020/12/05 09:21:14;;;;;;;;;;;4.60;92.90;;;;;;5010155;28;20124;-75
2020/12/05 09:23:39;;;;;;;10.20;6.82;;;4.60;92.90;;;;;;5014449;28;19917;-74
2020/12/05 09:26:06;;;;;;;7.30;6.45;;;4.60;92.80;;;;;;5011087;28;20163;-74
2020/12/05 09:28:33;;;;;;;12.05;6.95;;;4.60;92.80;;;;;;5035351;28;20041;-74
2020/12/05 09:31:03;;;;;;;9.20;6.63;;;4.60;92.90;;;;;;5022928;28;20033;-73
2020/12/05 09:33:29;;;;;;;8.82;6.53;;;4.70;93.00;;;;;;5034082;28;20382;-75
2020/12/05 09:35:55;;;;;;;7.70;6.70;;;4.70;93.00;;;;;;5033111;28;20022;-74
2020/12/05 09:38:20;;;;;;;8.38;6.82;;;4.70;93.00;;;;;;5033972;28;20079;-74
2020/12/05 09:40:49;;;;;;;11.50;7.07;;;4.80;93.00;;;;;;5024874;28;20029;-74
2020/12/05 09:43:14;;;;;;;8.77;7.35;;;4.80;93.00;;;;;;4995410;28;20034;-74
2020/12/05 09:45:40;;;;;;;7.93;6.63;;;4.80;92.90;;;;;;4996578;28;20105;-74
2020/12/05 09:48:06;;;;;;;9.77;6.63;;;4.80;92.90;;;;;;4996258;28;20021;-75
2020/12/05 09:50:32;;;;;;;7.95;7.03;;;4.80;93.00;;;;;;5013288;28;20022;-75
2020/12/05 09:52:59;;;;;;;7.82;6.30;;;4.90;93.00;;;;;;5019779;28;20525;-75
2020/12/05 09:55:25;;;;;;;10.20;7.13;;;4.90;92.90;;;;;;5033381;28;20132;-75
2020/12/05 09:57:51;;;;;;;11.75;6.95;;;5.00;92.90;;;;;;5032887;28;20085;-74
2020/12/05 10:00:17;;;;;;;9.57;6.50;;;5.00;92.90;;;;;;5022994;28;20026;-79
2020/12/05 10:02:43;;;;;;;6.85;5.88;;;5.00;92.80;;;;;;4997324;28;20061;-75
2020/12/05 10:05:10;;;;;;;7.55;6.40;;;5.10;92.80;;;;;;5014756;28;20067;-72
2020/12/05 10:07:37;;;;;;;8.23;6.28;;;5.10;92.80;;;;;;5015535;28;20566;-73
2020/12/05 10:10:04;;;;;;;7.38;5.82;;;5.20;92.80;;;;;;5010279;28;20026;-73
2020/12/05 10:12:32;;;;;;;7.28;6.32;;;5.20;92.80;;;;;;4996019;28;20018;-74
2020/12/05 10:14:57;;;;;;;7.07;6.35;;;5.30;92.70;;;;;;4995604;28;20014;-71
2020/12/05 10:17:23;;;;;;;7.97;6.30;;;5.30;92.70;;;;;;4995300;28;20030;-78
2020/12/05 10:19:48;;;;;;;9.73;6.00;;;5.40;92.60;;;;;;4995774;28;20029;-75
2020/12/05 10:22:14;;;;;;;8.50;5.10;;;5.40;92.50;;;;;;5011790;28;20041;-76
2020/12/05 10:24:39;;;;;;;7.82;5.05;;;5.40;92.40;;;;;;5025487;28;20041;-82
2020/12/05 10:27:06;;;;;;;7.40;4.95;;;5.50;92.40;;;;;;5012399;28;20079;-81
2020/12/05 10:29:32;;;;;;;6.13;5.45;;;5.50;92.30;;;;;;5032348;28;20017;-80
2020/12/05 10:32:31;;;;;;;7.55;5.20;;;5.50;92.30;;;;;;5012381;28;20052;-81
2020/12/05 10:35:00;;;;;;;6.43;4.82;;;5.50;92.10;;;;;;5032998;28;20448;-81
2020/12/05 10:37:26;;;;;;;5.70;4.50;;;5.60;92.10;;;;;;5015575;28;20060;-82
2020/12/05 10:39:51;;;;;;;5.53;4.90;;;5.60;92.00;;;;;;5014540;28;20394;-79
2020/12/05 10:42:19;;;;;;;6.75;5.47;;;5.60;91.90;;;;;;5013607;28;20022;-85
2020/12/05 10:44:44;;;;;;;6.30;5.35;;;5.70;91.80;;;;;;5028930;28;20029;-85
2020/12/05 10:47:10;;;;;;;5.85;5.25;;;5.80;91.80;;;;;;5015336;28;20064;-84
2020/12/05 10:49:37;;;;;;;5.95;4.63;;;5.80;91.70;;;;;;5014789;28;20025;-82
2020/12/05 10:52:03;;;;;;;5.43;4.93;;;5.90;91.60;;;;;;4999384;28;20067;-86
2020/12/05 10:54:31;;;;;;;8.30;5.53;;;5.90;91.60;;;;;;5003502;28;20026;-87
2020/12/05 10:56:57;;;;;;;5.57;4.97;;;5.90;91.60;;;;;;4996470;28;20076;-87
2020/12/05 10:59:23;;;;;;;4.80;4.20;;;6.00;91.60;;;;;;4998972;28;20022;-83
2020/12/05 11:01:49;;;;;;;5.50;4.75;;;6.00;91.40;;;;;;4998729;28;20041;-85
2020/12/05 11:04:15;;;;;;;8.02;4.82;;;6.00;91.30;;;;;;4995807;28;20030;-87
2020/12/05 11:06:40;;;;;;;4.75;4.25;;;6.00;91.20;;;;;;4998910;28;20032;-88
2020/12/05 11:09:06;;;;;;;6.75;5.40;;;6.10;91.20;;;;;;5002908;28;20018;-86
2020/12/05 11:11:31;;;;;;;5.80;4.70;;;6.10;91.10;;;;;;5020218;28;20558;-83
2020/12/05 11:13:57;;;;;;;7.95;4.70;;;6.20;91.00;;;;;;5032635;28;20017;-86
2020/12/05 11:16:24;;;;;;;4.63;4.13;;;6.30;90.80;;;;;;5019376;28;20025;-84
2020/12/05 11:18:50;;;;;;;7.60;4.63;;;6.40;90.60;;;;;;5000328;28;20021;-83
2020/12/05 11:21:16;;;;;;;6.10;4.50;;;6.40;90.50;;;;;;5016267;28;20087;-71
2020/12/05 11:23:42;;;;;;;5.70;4.68;;;6.50;90.30;;;;;;5015689;28;20526;-73
2020/12/05 11:26:08;;;;;;;8.65;5.80;;;6.60;90.20;;;;;;5043858;28;20025;-79
2020/12/05 11:28:34;;;;;;;7.15;5.22;;;6.60;90.10;;;;;;5037655;28;20074;-79
2020/12/05 11:31:00;;;;;;;6.65;4.88;;;6.70;90.20;;;;;;5021405;28;20029;-80
2020/12/05 11:33:25;;;;;;;6.15;4.38;;;6.80;90.20;;;;;;5055587;28;20044;-79
2020/12/05 11:35:51;;;;;;;8.27;3.90;;;6.90;90.00;;;;;;5035063;28;20021;-79
2020/12/05 11:38:18;;;;;;;5.38;3.65;;;7.10;89.70;;;;;;5017474;28;20048;-73
2020/12/05 11:40:43;;;;;;;3.63;3.30;;;7.30;88.40;;;;;;5035712;28;20025;-75
2020/12/05 11:43:09;;;;;;;4.88;3.67;;;7.40;87.20;;;;;;5033717;28;20041;-74
2020/12/05 11:45:34;;;;;;;4.15;3.22;;;7.50;86.10;;;;;;5035422;28;20025;-74
2020/12/05 11:48:00;;;;;;;4.90;3.83;;;7.60;85.00;;;;;;5035035;28;20017;-74
2020/12/05 11:50:25;;;;;;;5.60;3.22;;;7.60;85.30;;;;;;5034996;28;20422;-74
2020/12/05 11:52:51;;;;;;;6.78;3.35;;;7.60;85.10;;;;;;5015914;28;20108;-73
2020/12/05 11:55:17;;;;;;;7.40;3.63;;;7.50;84.40;;;;;;5008626;28;20466;-74
2020/12/05 11:57:42;;;;;;;6.60;3.70;;;7.50;84.50;;;;;;5015186;28;20399;-74
2020/12/05 12:00:08;;;;;;;4.90;3.63;;;7.40;84.30;;;;;;5011343;28;20053;-74
2020/12/05 12:02:33;;;;;;;4.70;3.45;;;7.30;84.40;;;;;;5034734;28;20029;-74
2020/12/05 12:04:59;;;;;;;5.13;3.30;;;7.20;84.50;;;;;;5034406;28;20091;-74
2020/12/05 12:07:24;;;;;;;4.10;3.50;;;7.10;84.70;;;;;;5017504;28;20036;-74
2020/12/05 12:09:50;;;;;;;5.65;3.85;;;7.10;84.80;;;;;;5016487;28;20014;-74
2020/12/05 12:12:15;;;;;;;4.60;3.50;;;7.10;84.70;;;;;;5017041;28;20026;-74
2020/12/05 12:14:41;;;;;;;5.55;3.83;;;7.00;84.50;;;;;;5017590;28;20032;-74
2020/12/05 12:17:06;;;;;;;6.10;3.63;;;6.90;84.00;;;;;;5034295;28;20100;-74
2020/12/05 12:19:32;;;;;;;5.03;3.40;;;6.90;84.50;;;;;;5009187;28;20025;-72
2020/12/05 12:21:57;;;;;;;6.20;3.88;;;7.00;84.70;;;;;;4997310;28;20045;-71
2020/12/05 12:24:24;;;;;;;6.35;3.65;;;6.90;84.50;;;;;;4993265;28;20050;-70
2020/12/05 12:26:49;;;;;;;4.68;3.80;;;6.80;83.90;;;;;;4995097;28;20019;-77
2020/12/05 12:29:15;;;;;;;5.70;3.72;;;6.80;84.20;;;;;;4993533;28;20037;-73
2020/12/05 12:31:41;;;;;;;4.68;3.70;;;6.80;84.50;;;;;;4994701;28;20022;-73
2020/12/05 12:34:07;;;;;;;6.90;3.65;;;6.70;84.40;;;;;;4995493;28;20022;-74
2020/12/05 12:36:32;;;;;;;5.70;3.55;;;6.80;84.30;;;;;;4993718;28;20019;-73
2020/12/05 12:38:58;;;;;;;7.53;4.00;;;6.80;84.50;;;;;;4994163;28;20034;-74
2020/12/05 12:41:23;;;;;;;6.88;3.47;;;6.90;84.50;;;;;;4994021;28;20038;-73
2020/12/05 12:43:51;;;;;;;7.53;4.20;;;7.00;84.20;;;;;;4995151;28;20019;-74
2020/12/05 12:46:18;;;;;;;4.55;3.60;;;7.20;84.30;;;;;;4994201;28;20019;-75
2020/12/05 12:48:43;;;;;;;6.00;3.95;;;7.20;83.90;;;;;;4994765;28;20018;-74
2020/12/05 12:51:09;;;;;;;5.20;3.47;;;7.40;83.90;;;;;;4994165;28;20091;-71
2020/12/05 12:53:36;;;;;;;6.78;3.83;;;7.40;83.50;;;;;;4992910;28;20485;-74
2020/12/05 12:56:03;;;;;;;5.50;3.88;;;7.60;83.40;;;;;;4994298;28;20152;-72